sensor_id;sensor_type;location;lat;lon;timestamp;pressure;altitude;pressure_sealevel;temperature;humidity
73422;BME280;61637;47.760;-122.022;2023-07-02T00:00:01;102268.97799999999;;;23.0;unknown
73422;BME280;61637;47.760;-122.022;2023-07-02T00:02:01;102268.97799999999;;;23.0;unknown
73422;BME280;61637;47.760;-122.022;2023-07-02T00:04:01;102268.97799999999;;;23.1;unknown
73422;BME280;61637;47.760;-122.022;2023-07-02T00:06:01;102268.97799999999;;;23.1;unknown
73422;BME280;61637;47.760;-122.022;2023-07-02T00:08:01;102268.97799999999;;;23.1;unknown
73422;BME280;61637;47.760;-122.022;2023-07-02T00:10:01;102268.97799999999;;;23.1;unknown
73422;BME280;61637;47.760;-122.022;2023-07-02T00:12:01;102268.97799999999;;;23.1;unknown
73422;BME280;61637;47.760;-122.022;2023-07-02T00:14:01;102268.97799999999;;;23.0;unknown
73422;BME280;61637;47.760;-122.022;2023-07-02T00:16:01;102268.97799999999;;;23.1;unknown
73422;BME280;61637;47.760;-122.022;2023-07-02T00:18:01;102268.97799999999;;;23.1;unknown
73422;BME280;61637;47.760;-122.022;2023-07-02T00:20:01;102268.97799999999;;;23.2;unknown
73422;BME280;61637;47.760;-122.022;2023-07-02T00:22:01;102268.97799999999;;;23.3;unknown
73422;BME280;61637;47.760;-122.022;2023-07-02T00:24:01;102268.97799999999;;;23.4;unknown
73422;BME280;61637;47.760;-122.022;2023-07-02T00:26:01;102268.97799999999;;;23.4;unknown
73422;BME280;61637;47.760;-122.022;2023-07-02T00:28:01;102268.97799999999;;;23.6;unknown
73422;BME280;61637;47.760;-122.022;2023-07-02T00:30:01;102268.97799999999;;;23.6;unknown
73422;BME280;61637;47.760;-122.022;2023-07-02T00:32:01;102268.97799999999;;;23.5;unknown
73422;BME280;61637;47.760;-122.022;2023-07-02T00:34:01;102268.97799999999;;;23.5;unknown
73422;BME280;61637;47.760;-122.022;2023-07-02T00:36:01;102268.97799999999;;;23.6;unknown
73422;BME280;61637;47.760;-122.022;2023-07-02T00:38:01;102268.97799999999;;;23.6;unknown
73422;BME280;61637;47.760;-122.022;2023-07-02T00:40:01;102268.97799999999;;;23.4;unknown
73422;BME280;61637;47.760;-122.022;2023-07-02T00:42:01;102268.97799999999;;;23.3;unknown
73422;BME280;61637;47.760;-122.022;2023-07-02T00:44:01;102268.97799999999;;;23.4;unknown
73422;BME280;61637;47.760;-122.022;2023-07-02T00:46:01;102268.97799999999;;;23.6;unknown
73422;BME280;61637;47.760;-122.022;2023-07-02T00:48:01;102268.97799999999;;;23.7;unknown
73422;BME280;61637;47.760;-122.022;2023-07-02T00:50:01;102268.97799999999;;;23.8;unknown
73422;BME280;61637;47.760;-122.022;2023-07-02T00:52:01;102268.97799999999;;;23.9;unknown
73422;BME280;61637;47.760;-122.022;2023-07-02T00:54:01;102268.97799999999;;;23.8;unknown
73422;BME280;61637;47.760;-122.022;2023-07-02T00:56:01;102268.97799999999;;;23.6;unknown
73422;BME280;61637;47.760;-122.022;2023-07-02T00:58:01;102268.97799999999;;;23.5;unknown
73422;BME280;61637;47.760;-122.022;2023-07-02T01:00:01;102268.97799999999;;;23.4;unknown
73422;BME280;61637;47.760;-122.022;2023-07-02T01:02:01;102268.97799999999;;;23.3;unknown
73422;BME280;61637;47.760;-122.022;2023-07-02T01:04:01;102268.97799999999;;;23.3;unknown
73422;BME280;61637;47.760;-122.022;2023-07-02T01:06:01;102268.97799999999;;;23.3;unknown
73422;BME280;61637;47.760;-122.022;2023-07-02T01:08:01;102268.97799999999;;;23.3;unknown
73422;BME280;61637;47.760;-122.022;2023-07-02T01:10:01;102268.97799999999;;;23.3;unknown
73422;BME280;61637;47.760;-122.022;2023-07-02T01:12:02;102268.97799999999;;;23.3;unknown
73422;BME280;61637;47.760;-122.022;2023-07-02T01:14:01;102268.97799999999;;;23.3;unknown
73422;BME280;61637;47.760;-122.022;2023-07-02T01:16:01;102268.97799999999;;;23.2;unknown
73422;BME280;61637;47.760;-122.022;2023-07-02T01:18:01;102268.97799999999;;;23.3;unknown
73422;BME280;61637;47.760;-122.022;2023-07-02T01:20:01;102268.97799999999;;;23.3;unknown
73422;BME280;61637;47.760;-122.022;2023-07-02T01:22:01;102268.97799999999;;;23.2;unknown
73422;BME280;61637;47.760;-122.022;2023-07-02T01:24:01;102268.97799999999;;;23.1;unknown
73422;BME280;61637;47.760;-122.022;2023-07-02T01:26:01;102268.97799999999;;;22.8;unknown
73422;BME280;61637;47.760;-122.022;2023-07-02T01:28:01;102268.97799999999;;;22.7;unknown
73422;BME280;61637;47.760;-122.022;2023-07-02T01:30:01;102268.97799999999;;;22.6;unknown
73422;BME280;61637;47.760;-122.022;2023-07-02T01:32:01;102268.97799999999;;;22.6;unknown
73422;BME280;61637;47.760;-122.022;2023-07-02T01:34:01;102268.97799999999;;;22.6;unknown
73422;BME280;61637;47.760;-122.022;2023-07-02T01:36:01;102268.97799999999;;;22.3;unknown
73422;BME280;61637;47.760;-122.022;2023-07-02T01:38:01;102268.97799999999;;;22.0;unknown
73422;BME280;61637;47.760;-122.022;2023-07-02T01:40:01;102268.97799999999;;;21.8;unknown
73422;BME280;61637;47.760;-122.022;2023-07-02T01:42:08;102268.97799999999;;;21.6;unknown
73422;BME280;61637;47.760;-122.022;2023-07-02T01:44:01;102268.97799999999;;;21.3;unknown
73422;BME280;61637;47.760;-122.022;2023-07-02T01:46:01;102268.97799999999;;;21.2;unknown
73422;BME280;61637;47.760;-122.022;2023-07-02T01:48:01;102268.97799999999;;;21.1;unknown
73422;BME280;61637;47.760;-122.022;2023-07-02T01:50:01;102268.97799999999;;;20.9;unknown
73422;BME280;61637;47.760;-122.022;2023-07-02T01:52:01;102268.97799999999;;;20.9;unknown
73422;BME280;61637;47.760;-122.022;2023-07-02T01:54:01;102268.97799999999;;;20.8;unknown
73422;BME280;61637;47.760;-122.022;2023-07-02T01:56:01;102268.97799999999;;;20.7;unknown
73422;BME280;61637;47.760;-122.022;2023-07-02T01:58:01;102268.97799999999;;;20.6;unknown
73422;BME280;61637;47.760;-122.022;2023-07-02T02:00:01;102268.97799999999;;;20.4;unknown
73422;BME280;61637;47.760;-122.022;2023-07-02T02:02:01;102268.97799999999;;;20.3;unknown
73422;BME280;61637;47.760;-122.022;2023-07-02T02:04:01;102268.97799999999;;;20.3;unknown
73422;BME280;61637;47.760;-122.022;2023-07-02T02:06:01;102268.97799999999;;;20.2;unknown
73422;BME280;61637;47.760;-122.022;2023-07-02T02:08:01;102268.97799999999;;;20.1;unknown
73422;BME280;61637;47.760;-122.022;2023-07-02T02:10:01;102268.97799999999;;;20.1;unknown
73422;BME280;61637;47.760;-122.022;2023-07-02T02:12:01;102268.97799999999;;;19.9;unknown
73422;BME280;61637;47.760;-122.022;2023-07-02T02:14:01;102268.97799999999;;;19.8;unknown
73422;BME280;61637;47.760;-122.022;2023-07-02T02:16:01;102268.97799999999;;;19.8;unknown
73422;BME280;61637;47.760;-122.022;2023-07-02T02:18:01;102268.97799999999;;;19.7;unknown
73422;BME280;61637;47.760;-122.022;2023-07-02T02:20:01;102268.97799999999;;;19.6;unknown
73422;BME280;61637;47.760;-122.022;2023-07-02T02:22:01;102268.97799999999;;;19.4;unknown
73422;BME280;61637;47.760;-122.022;2023-07-02T02:24:01;102268.97799999999;;;19.3;unknown
73422;BME280;61637;47.760;-122.022;2023-07-02T02:26:01;102268.97799999999;;;19.2;unknown
73422;BME280;61637;47.760;-122.022;2023-07-02T02:28:01;102268.97799999999;;;19.1;unknown
73422;BME280;61637;47.760;-122.022;2023-07-02T02:30:01;102268.97799999999;;;19.1;unknown
73422;BME280;61637;47.760;-122.022;2023-07-02T02:32:01;102268.97799999999;;;18.9;unknown
73422;BME280;61637;47.760;-122.022;2023-07-02T02:34:01;102268.97799999999;;;18.8;unknown
73422;BME280;61637;47.760;-122.022;2023-07-02T02:36:01;102268.97799999999;;;18.8;unknown
73422;BME280;61637;47.760;-122.022;2023-07-02T02:38:02;102268.97799999999;;;18.7;unknown
73422;BME280;61637;47.760;-122.022;2023-07-02T02:40:01;102268.97799999999;;;18.7;unknown
73422;BME280;61637;47.760;-122.022;2023-07-02T02:42:01;102268.97799999999;;;18.6;unknown
73422;BME280;61637;47.760;-122.022;2023-07-02T02:44:01;102268.97799999999;;;18.6;unknown
73422;BME280;61637;47.760;-122.022;2023-07-02T02:46:01;102268.97799999999;;;18.5;unknown
73422;BME280;61637;47.760;-122.022;2023-07-02T02:48:01;102268.97799999999;;;18.4;unknown
73422;BME280;61637;47.760;-122.022;2023-07-02T02:50:01;102268.97799999999;;;18.4;unknown
73422;BME280;61637;47.760;-122.022;2023-07-02T02:52:01;102268.97799999999;;;18.3;unknown
73422;BME280;61637;47.760;-122.022;2023-07-02T02:54:01;102268.97799999999;;;18.2;unknown
73422;BME280;61637;47.760;-122.022;2023-07-02T02:56:01;102268.97799999999;;;18.2;unknown
73422;BME280;61637;47.760;-122.022;2023-07-02T02:58:01;102268.97799999999;;;18.2;unknown
73422;BME280;61637;47.760;-122.022;2023-07-02T03:00:01;102268.97799999999;;;18.1;unknown
73422;BME280;61637;47.760;-122.022;2023-07-02T03:02:01;102268.97799999999;;;18.1;unknown
73422;BME280;61637;47.760;-122.022;2023-07-02T03:04:01;102268.97799999999;;;18.1;unknown
73422;BME280;61637;47.760;-122.022;2023-07-02T03:06:01;102268.97799999999;;;18.0;unknown
73422;BME280;61637;47.760;-122.022;2023-07-02T03:08:01;102268.97799999999;;;17.9;unknown
73422;BME280;61637;47.760;-122.022;2023-07-02T03:10:01;102268.97799999999;;;17.9;unknown
73422;BME280;61637;47.760;-122.022;2023-07-02T03:12:01;102268.97799999999;;;17.8;unknown
73422;BME280;61637;47.760;-122.022;2023-07-02T03:14:01;102268.97799999999;;;17.8;unknown
73422;BME280;61637;47.760;-122.022;2023-07-02T03:16:01;102268.97799999999;;;17.7;unknown
73422;BME280;61637;47.760;-122.022;2023-07-02T03:18:01;102268.97799999999;;;17.7;unknown
73422;BME280;61637;47.760;-122.022;2023-07-02T03:20:01;102268.97799999999;;;17.6;unknown
73422;BME280;61637;47.760;-122.022;2023-07-02T03:22:01;102268.97799999999;;;17.6;unknown
73422;BME280;61637;47.760;-122.022;2023-07-02T03:24:01;102268.97799999999;;;17.6;unknown
73422;BME280;61637;47.760;-122.022;2023-07-02T03:26:01;102268.97799999999;;;17.5;unknown
73422;BME280;61637;47.760;-122.022;2023-07-02T03:28:01;102268.97799999999;;;17.4;unknown
73422;BME280;61637;47.760;-122.022;2023-07-02T03:30:01;102268.97799999999;;;17.4;unknown
73422;BME280;61637;47.760;-122.022;2023-07-02T03:32:01;102268.97799999999;;;17.4;unknown
73422;BME280;61637;47.760;-122.022;2023-07-02T03:34:02;102268.97799999999;;;17.3;unknown
73422;BME280;61637;47.760;-122.022;2023-07-02T03:36:01;102268.97799999999;;;17.2;unknown
73422;BME280;61637;47.760;-122.022;2023-07-02T03:38:02;102268.97799999999;;;17.2;unknown
73422;BME280;61637;47.760;-122.022;2023-07-02T03:40:01;102268.97799999999;;;17.1;unknown
73422;BME280;61637;47.760;-122.022;2023-07-02T03:42:01;102268.97799999999;;;17.1;unknown
73422;BME280;61637;47.760;-122.022;2023-07-02T03:44:01;102268.97799999999;;;16.9;unknown
73422;BME280;61637;47.760;-122.022;2023-07-02T03:46:01;102268.97799999999;;;16.9;unknown
73422;BME280;61637;47.760;-122.022;2023-07-02T03:48:01;102268.97799999999;;;16.8;unknown
73422;BME280;61637;47.760;-122.022;2023-07-02T03:50:01;102268.97799999999;;;16.8;unknown
73422;BME280;61637;47.760;-122.022;2023-07-02T03:52:01;102268.97799999999;;;16.7;unknown
73422;BME280;61637;47.760;-122.022;2023-07-02T03:54:01;102268.97799999999;;;16.7;unknown
73422;BME280;61637;47.760;-122.022;2023-07-02T03:56:01;102268.97799999999;;;16.7;unknown
73422;BME280;61637;47.760;-122.022;2023-07-02T03:58:01;102268.97799999999;;;16.6;unknown
73422;BME280;61637;47.760;-122.022;2023-07-02T04:00:01;102268.97799999999;;;16.6;unknown
73422;BME280;61637;47.760;-122.022;2023-07-02T04:02:01;102268.97799999999;;;16.5;unknown
73422;BME280;61637;47.760;-122.022;2023-07-02T04:04:02;102268.97799999999;;;16.4;unknown
73422;BME280;61637;47.760;-122.022;2023-07-02T04:06:01;102268.97799999999;;;16.4;unknown
73422;BME280;61637;47.760;-122.022;2023-07-02T04:08:01;102268.97799999999;;;16.4;unknown
73422;BME280;61637;47.760;-122.022;2023-07-02T04:10:01;102268.97799999999;;;16.3;unknown
73422;BME280;61637;47.760;-122.022;2023-07-02T04:12:01;102268.97799999999;;;16.3;unknown
73422;BME280;61637;47.760;-122.022;2023-07-02T04:14:01;102268.97799999999;;;16.3;unknown
73422;BME280;61637;47.760;-122.022;2023-07-02T04:16:01;102268.97799999999;;;16.2;unknown
73422;BME280;61637;47.760;-122.022;2023-07-02T04:18:01;102268.97799999999;;;16.2;unknown
73422;BME280;61637;47.760;-122.022;2023-07-02T04:20:02;102268.97799999999;;;16.1;unknown
73422;BME280;61637;47.760;-122.022;2023-07-02T04:22:01;102268.97799999999;;;16.1;unknown
73422;BME280;61637;47.760;-122.022;2023-07-02T04:24:01;102268.97799999999;;;16.1;unknown
73422;BME280;61637;47.760;-122.022;2023-07-02T04:26:01;102268.97799999999;;;16.0;unknown
73422;BME280;61637;47.760;-122.022;2023-07-02T04:28:01;102268.97799999999;;;16.0;unknown
73422;BME280;61637;47.760;-122.022;2023-07-02T04:30:01;102268.97799999999;;;15.9;unknown
73422;BME280;61637;47.760;-122.022;2023-07-02T04:32:01;102268.97799999999;;;15.9;unknown
73422;BME280;61637;47.760;-122.022;2023-07-02T04:34:01;102268.97799999999;;;15.9;unknown
73422;BME280;61637;47.760;-122.022;2023-07-02T04:36:01;102268.97799999999;;;15.8;unknown
73422;BME280;61637;47.760;-122.022;2023-07-02T04:38:01;102268.97799999999;;;15.8;unknown
73422;BME280;61637;47.760;-122.022;2023-07-02T04:40:01;102268.97799999999;;;15.7;unknown
73422;BME280;61637;47.760;-122.022;2023-07-02T04:42:01;102268.97799999999;;;15.7;unknown
73422;BME280;61637;47.760;-122.022;2023-07-02T04:44:01;102268.97799999999;;;15.7;unknown
73422;BME280;61637;47.760;-122.022;2023-07-02T04:46:01;102268.97799999999;;;15.6;unknown
73422;BME280;61637;47.760;-122.022;2023-07-02T04:48:01;102268.97799999999;;;15.6;unknown
73422;BME280;61637;47.760;-122.022;2023-07-02T04:50:01;102268.97799999999;;;15.6;unknown
73422;BME280;61637;47.760;-122.022;2023-07-02T04:52:01;102268.97799999999;;;15.6;unknown
73422;BME280;61637;47.760;-122.022;2023-07-02T04:54:01;102268.97799999999;;;15.6;unknown
73422;BME280;61637;47.760;-122.022;2023-07-02T04:56:01;102268.97799999999;;;15.6;unknown
73422;BME280;61637;47.760;-122.022;2023-07-02T04:58:01;102268.97799999999;;;15.6;unknown
73422;BME280;61637;47.760;-122.022;2023-07-02T05:00:01;102268.97799999999;;;15.6;unknown
73422;BME280;61637;47.760;-122.022;2023-07-02T05:02:01;102268.97799999999;;;15.6;unknown
73422;BME280;61637;47.760;-122.022;2023-07-02T05:04:01;102268.97799999999;;;15.6;unknown
73422;BME280;61637;47.760;-122.022;2023-07-02T05:06:01;102268.97799999999;;;15.6;unknown
73422;BME280;61637;47.760;-122.022;2023-07-02T05:08:01;102268.97799999999;;;15.6;unknown
73422;BME280;61637;47.760;-122.022;2023-07-02T05:10:01;102268.97799999999;;;15.6;unknown
73422;BME280;61637;47.760;-122.022;2023-07-02T05:12:01;102268.97799999999;;;15.6;unknown
73422;BME280;61637;47.760;-122.022;2023-07-02T05:14:01;102268.97799999999;;;15.6;unknown
73422;BME280;61637;47.760;-122.022;2023-07-02T05:16:01;102268.97799999999;;;15.6;unknown
73422;BME280;61637;47.760;-122.022;2023-07-02T05:18:01;102268.97799999999;;;15.6;unknown
73422;BME280;61637;47.760;-122.022;2023-07-02T05:20:01;102268.97799999999;;;15.6;unknown
73422;BME280;61637;47.760;-122.022;2023-07-02T05:22:01;102268.97799999999;;;15.4;unknown
73422;BME280;61637;47.760;-122.022;2023-07-02T05:24:01;102268.97799999999;;;15.4;unknown
73422;BME280;61637;47.760;-122.022;2023-07-02T05:26:01;102268.97799999999;;;15.4;unknown
73422;BME280;61637;47.760;-122.022;2023-07-02T05:28:01;102268.97799999999;;;15.4;unknown
73422;BME280;61637;47.760;-122.022;2023-07-02T05:30:01;102268.97799999999;;;15.3;unknown
73422;BME280;61637;47.760;-122.022;2023-07-02T05:32:01;102268.97799999999;;;15.3;unknown
73422;BME280;61637;47.760;-122.022;2023-07-02T05:34:01;102268.97799999999;;;15.3;unknown
73422;BME280;61637;47.760;-122.022;2023-07-02T05:36:01;102268.97799999999;;;15.3;unknown
73422;BME280;61637;47.760;-122.022;2023-07-02T05:38:01;102268.97799999999;;;15.2;unknown
73422;BME280;61637;47.760;-122.022;2023-07-02T05:40:01;102268.97799999999;;;15.2;unknown
73422;BME280;61637;47.760;-122.022;2023-07-02T05:42:01;102268.97799999999;;;15.2;unknown
73422;BME280;61637;47.760;-122.022;2023-07-02T05:44:01;102268.97799999999;;;15.1;unknown
73422;BME280;61637;47.760;-122.022;2023-07-02T05:46:01;102268.97799999999;;;15.1;unknown
73422;BME280;61637;47.760;-122.022;2023-07-02T05:48:01;102268.97799999999;;;15.1;unknown
73422;BME280;61637;47.760;-122.022;2023-07-02T05:50:01;102268.97799999999;;;15.0;unknown
73422;BME280;61637;47.760;-122.022;2023-07-02T05:52:01;102268.97799999999;;;15.0;unknown
73422;BME280;61637;47.760;-122.022;2023-07-02T05:54:01;102268.97799999999;;;14.9;unknown
73422;BME280;61637;47.760;-122.022;2023-07-02T05:56:01;102268.97799999999;;;14.9;unknown
73422;BME280;61637;47.760;-122.022;2023-07-02T05:58:01;102268.97799999999;;;14.8;unknown
73422;BME280;61637;47.760;-122.022;2023-07-02T06:00:01;102268.97799999999;;;14.8;unknown
73422;BME280;61637;47.760;-122.022;2023-07-02T06:02:01;102268.97799999999;;;14.7;unknown
73422;BME280;61637;47.760;-122.022;2023-07-02T06:04:01;102268.97799999999;;;14.8;unknown
73422;BME280;61637;47.760;-122.022;2023-07-02T06:06:01;102268.97799999999;;;14.8;unknown
73422;BME280;61637;47.760;-122.022;2023-07-02T06:08:01;102268.97799999999;;;14.8;unknown
73422;BME280;61637;47.760;-122.022;2023-07-02T06:10:01;102268.97799999999;;;14.8;unknown
73422;BME280;61637;47.760;-122.022;2023-07-02T06:12:01;102268.97799999999;;;14.8;unknown
73422;BME280;61637;47.760;-122.022;2023-07-02T06:14:01;102268.97799999999;;;14.8;unknown
73422;BME280;61637;47.760;-122.022;2023-07-02T06:16:01;102268.97799999999;;;14.8;unknown
73422;BME280;61637;47.760;-122.022;2023-07-02T06:18:01;102268.97799999999;;;14.8;unknown
73422;BME280;61637;47.760;-122.022;2023-07-02T06:20:02;102268.97799999999;;;14.8;unknown
73422;BME280;61637;47.760;-122.022;2023-07-02T06:22:01;102268.97799999999;;;14.7;unknown
73422;BME280;61637;47.760;-122.022;2023-07-02T06:24:01;102268.97799999999;;;14.7;unknown
73422;BME280;61637;47.760;-122.022;2023-07-02T06:26:01;102268.97799999999;;;14.6;unknown
73422;BME280;61637;47.760;-122.022;2023-07-02T06:28:01;102268.97799999999;;;14.6;unknown
73422;BME280;61637;47.760;-122.022;2023-07-02T06:30:01;102268.97799999999;;;14.6;unknown
73422;BME280;61637;47.760;-122.022;2023-07-02T06:32:01;102268.97799999999;;;14.5;unknown
73422;BME280;61637;47.760;-122.022;2023-07-02T06:34:01;102268.97799999999;;;14.4;unknown
73422;BME280;61637;47.760;-122.022;2023-07-02T06:36:01;102268.97799999999;;;14.4;unknown
73422;BME280;61637;47.760;-122.022;2023-07-02T06:38:01;102268.97799999999;;;14.3;unknown
73422;BME280;61637;47.760;-122.022;2023-07-02T06:40:01;102268.97799999999;;;14.3;unknown
73422;BME280;61637;47.760;-122.022;2023-07-02T06:42:01;102268.97799999999;;;14.3;unknown
73422;BME280;61637;47.760;-122.022;2023-07-02T06:44:01;102268.97799999999;;;14.2;unknown
73422;BME280;61637;47.760;-122.022;2023-07-02T06:46:01;102268.97799999999;;;14.1;unknown
73422;BME280;61637;47.760;-122.022;2023-07-02T06:48:01;102268.97799999999;;;14.1;unknown
73422;BME280;61637;47.760;-122.022;2023-07-02T06:50:01;102268.97799999999;;;14.1;unknown
73422;BME280;61637;47.760;-122.022;2023-07-02T06:52:01;102268.97799999999;;;14.0;unknown
73422;BME280;61637;47.760;-122.022;2023-07-02T06:54:01;102268.97799999999;;;13.9;unknown
73422;BME280;61637;47.760;-122.022;2023-07-02T06:56:01;102268.97799999999;;;13.9;unknown
73422;BME280;61637;47.760;-122.022;2023-07-02T06:58:01;102268.97799999999;;;13.9;unknown
73422;BME280;61637;47.760;-122.022;2023-07-02T07:00:01;102268.97799999999;;;13.8;unknown
73422;BME280;61637;47.760;-122.022;2023-07-02T07:02:01;102268.97799999999;;;13.8;unknown
73422;BME280;61637;47.760;-122.022;2023-07-02T07:04:01;102268.97799999999;;;13.8;unknown
73422;BME280;61637;47.760;-122.022;2023-07-02T07:06:01;102268.97799999999;;;13.8;unknown
73422;BME280;61637;47.760;-122.022;2023-07-02T07:08:01;102268.97799999999;;;13.7;unknown
73422;BME280;61637;47.760;-122.022;2023-07-02T07:10:01;102268.97799999999;;;13.7;unknown
73422;BME280;61637;47.760;-122.022;2023-07-02T07:12:01;102268.97799999999;;;13.7;unknown
73422;BME280;61637;47.760;-122.022;2023-07-02T07:14:01;102268.97799999999;;;13.7;unknown
73422;BME280;61637;47.760;-122.022;2023-07-02T07:16:01;102268.97799999999;;;13.7;unknown
73422;BME280;61637;47.760;-122.022;2023-07-02T07:18:01;102268.97799999999;;;13.7;unknown
73422;BME280;61637;47.760;-122.022;2023-07-02T07:20:01;102268.97799999999;;;13.6;unknown
73422;BME280;61637;47.760;-122.022;2023-07-02T07:22:01;102268.97799999999;;;13.6;unknown
73422;BME280;61637;47.760;-122.022;2023-07-02T07:24:01;102268.97799999999;;;13.6;unknown
73422;BME280;61637;47.760;-122.022;2023-07-02T07:26:01;102268.97799999999;;;13.5;unknown
73422;BME280;61637;47.760;-122.022;2023-07-02T07:28:01;102268.97799999999;;;13.4;unknown
73422;BME280;61637;47.760;-122.022;2023-07-02T07:30:01;102268.97799999999;;;13.4;unknown
73422;BME280;61637;47.760;-122.022;2023-07-02T07:32:01;102268.97799999999;;;13.4;unknown
73422;BME280;61637;47.760;-122.022;2023-07-02T07:34:01;102268.97799999999;;;13.3;unknown
73422;BME280;61637;47.760;-122.022;2023-07-02T07:36:01;102268.97799999999;;;13.3;unknown
73422;BME280;61637;47.760;-122.022;2023-07-02T07:38:01;102268.97799999999;;;13.3;unknown
73422;BME280;61637;47.760;-122.022;2023-07-02T07:40:01;102268.97799999999;;;13.2;unknown
73422;BME280;61637;47.760;-122.022;2023-07-02T07:42:01;102268.97799999999;;;13.2;unknown
73422;BME280;61637;47.760;-122.022;2023-07-02T07:44:01;102268.97799999999;;;13.2;unknown
73422;BME280;61637;47.760;-122.022;2023-07-02T07:46:01;102268.97799999999;;;13.1;unknown
73422;BME280;61637;47.760;-122.022;2023-07-02T07:48:01;102268.97799999999;;;13.1;unknown
73422;BME280;61637;47.760;-122.022;2023-07-02T07:50:01;102268.97799999999;;;13.1;unknown
73422;BME280;61637;47.760;-122.022;2023-07-02T07:52:01;102268.97799999999;;;13.0;unknown
73422;BME280;61637;47.760;-122.022;2023-07-02T07:54:01;102268.97799999999;;;13.0;unknown
73422;BME280;61637;47.760;-122.022;2023-07-02T07:56:01;102268.97799999999;;;12.9;unknown
73422;BME280;61637;47.760;-122.022;2023-07-02T07:58:01;102268.97799999999;;;12.9;unknown
73422;BME280;61637;47.760;-122.022;2023-07-02T08:00:01;102268.97799999999;;;12.9;unknown
73422;BME280;61637;47.760;-122.022;2023-07-02T08:02:01;102268.97799999999;;;12.9;unknown
73422;BME280;61637;47.760;-122.022;2023-07-02T08:04:01;102268.97799999999;;;12.8;unknown
73422;BME280;61637;47.760;-122.022;2023-07-02T08:06:01;102268.97799999999;;;12.8;unknown
73422;BME280;61637;47.760;-122.022;2023-07-02T08:08:01;102268.97799999999;;;12.8;unknown
73422;BME280;61637;47.760;-122.022;2023-07-02T08:10:01;102268.97799999999;;;12.8;unknown
73422;BME280;61637;47.760;-122.022;2023-07-02T08:12:01;102268.97799999999;;;12.8;unknown
73422;BME280;61637;47.760;-122.022;2023-07-02T08:14:01;102268.97799999999;;;12.7;unknown
73422;BME280;61637;47.760;-122.022;2023-07-02T08:16:01;102268.97799999999;;;12.7;unknown
73422;BME280;61637;47.760;-122.022;2023-07-02T08:18:01;102268.97799999999;;;12.7;unknown
73422;BME280;61637;47.760;-122.022;2023-07-02T08:20:01;102268.97799999999;;;12.7;unknown
73422;BME280;61637;47.760;-122.022;2023-07-02T08:22:01;102268.97799999999;;;12.7;unknown
73422;BME280;61637;47.760;-122.022;2023-07-02T08:24:02;102268.97799999999;;;12.7;unknown
73422;BME280;61637;47.760;-122.022;2023-07-02T08:26:01;102268.97799999999;;;12.7;unknown
73422;BME280;61637;47.760;-122.022;2023-07-02T08:28:01;102268.97799999999;;;12.7;unknown
73422;BME280;61637;47.760;-122.022;2023-07-02T08:30:01;102268.97799999999;;;12.7;unknown
73422;BME280;61637;47.760;-122.022;2023-07-02T08:32:01;102268.97799999999;;;12.6;unknown
73422;BME280;61637;47.760;-122.022;2023-07-02T08:34:01;102268.97799999999;;;12.6;unknown
73422;BME280;61637;47.760;-122.022;2023-07-02T08:36:01;102268.97799999999;;;12.6;unknown
73422;BME280;61637;47.760;-122.022;2023-07-02T08:38:01;102268.97799999999;;;12.5;unknown
73422;BME280;61637;47.760;-122.022;2023-07-02T08:40:01;102268.97799999999;;;12.5;unknown
73422;BME280;61637;47.760;-122.022;2023-07-02T08:42:01;102268.97799999999;;;12.4;unknown
73422;BME280;61637;47.760;-122.022;2023-07-02T08:44:01;102268.97799999999;;;12.4;unknown
73422;BME280;61637;47.760;-122.022;2023-07-02T08:46:01;102268.97799999999;;;12.4;unknown
73422;BME280;61637;47.760;-122.022;2023-07-02T08:48:01;102268.97799999999;;;12.4;unknown
73422;BME280;61637;47.760;-122.022;2023-07-02T08:50:01;102268.97799999999;;;12.3;unknown
73422;BME280;61637;47.760;-122.022;2023-07-02T08:52:01;102268.97799999999;;;12.3;unknown
73422;BME280;61637;47.760;-122.022;2023-07-02T08:54:01;102268.97799999999;;;12.3;unknown